createdAt,value
2023-01-28T00:33:51.191Z,7.80
2023-01-28T00:36:17.571Z,7.60
2023-01-28T00:38:43.973Z,7.10
2023-01-28T00:41:19.231Z,7.53
2023-01-28T00:43:51.403Z,7.90
2023-01-28T00:46:26.217Z,7.87
2023-01-28T00:52:13.402Z,8.70
2023-01-28T00:54:55.017Z,8.00
2023-01-28T00:57:18.664Z,8.50
2023-01-28T00:59:51.608Z,8.63
2023-01-28T01:02:35.949Z,8.93
2023-01-28T01:05:15.436Z,8.93
2023-01-28T01:07:43.625Z,8.53
2023-01-28T01:10:09.252Z,9.43
2023-01-28T01:12:36.933Z,9.43
2023-01-28T01:17:44.653Z,9.00
2023-01-28T01:20:21.133Z,9.17
2023-01-28T01:22:53.148Z,9.63
2023-01-28T01:25:23.036Z,9.57
2023-01-28T01:28:16.509Z,9.13
2023-01-28T01:30:47.528Z,9.33
2023-01-28T01:33:18.535Z,10.03
2023-01-28T01:35:48.491Z,9.57
2023-01-28T01:38:26.781Z,9.07
2023-01-28T01:41:07.244Z,10.10
2023-01-28T01:44:03.779Z,9.23
2023-01-28T01:47:03.695Z,9.40
2023-01-28T01:49:40.962Z,9.77
2023-01-28T01:52:15.703Z,9.70
2023-01-28T01:54:53.655Z,9.27
2023-01-28T01:57:29.644Z,10.10
2023-01-28T01:59:59.659Z,9.35
2023-01-28T02:02:26.733Z,9.27
2023-01-28T02:04:56.322Z,10.30
2023-01-28T02:07:27.134Z,9.30
2023-01-28T02:09:57.069Z,10.53
2023-01-28T02:12:44.596Z,9.73
2023-01-28T02:15:19.554Z,10.53
2023-01-28T02:20:44.668Z,9.93
2023-01-28T02:24:05.692Z,9.60
2023-01-28T02:27:06.801Z,9.20
2023-01-28T02:29:52.138Z,9.40
2023-01-28T02:32:57.561Z,8.40
2023-01-28T02:36:00.451Z,8.90
2023-01-28T02:38:36.587Z,9.30
2023-01-28T02:41:14.639Z,8.37
2023-01-28T02:43:42.123Z,7.80
2023-01-28T02:46:59.978Z,8.47
2023-01-28T02:49:41.137Z,9.27
2023-01-28T02:52:48.488Z,8.83
2023-01-28T02:55:54.194Z,8.23
2023-01-28T02:58:43.504Z,8.63
2023-01-28T03:01:34.510Z,8.43
2023-01-28T03:04:30.682Z,9.43
2023-01-28T03:07:05.378Z,8.32
2023-01-28T03:09:29.199Z,8.38
2023-01-28T03:12:33.779Z,8.35
2023-01-28T03:19:12.884Z,8.20
2023-01-28T03:22:13.018Z,8.07
2023-01-28T04:32:03.987Z,6.23
2023-01-28T04:34:59.374Z,6.57
2023-01-28T04:37:52.399Z,5.60
2023-01-28T04:40:46.021Z,5.93
2023-01-28T04:43:40.972Z,5.63
2023-01-28T05:03:34.664Z,6.17
2023-01-28T05:06:03.213Z,6.30
2023-01-28T05:08:49.274Z,6.23
2023-01-28T05:11:22.176Z,6.80
2023-01-28T05:13:52.677Z,5.43
2023-01-28T05:16:17.563Z,5.67
2023-01-28T05:18:44.710Z,5.70
2023-01-28T05:45:40.791Z,6.27
2023-01-28T05:48:16.281Z,6.17
2023-01-28T05:50:56.422Z,5.87
2023-01-28T05:53:27.679Z,6.57
2023-01-28T05:55:53.235Z,6.47
2023-01-28T05:58:14.950Z,6.27
2023-01-28T06:00:37.232Z,6.27
2023-01-28T06:02:59.901Z,6.40
2023-01-28T06:05:21.630Z,6.37
2023-01-28T06:07:48.009Z,6.03
2023-01-28T06:10:10.977Z,6.10
2023-01-28T06:12:33.645Z,6.68
2023-01-28T06:15:24.908Z,6.47
2023-01-28T06:17:54.488Z,6.27
2023-01-28T06:20:24.946Z,6.37
2023-01-28T06:22:46.721Z,6.17
2023-01-28T06:25:09.425Z,6.50
2023-01-28T06:27:31.697Z,6.23
2023-01-28T06:29:53.755Z,6.23
2023-01-28T06:32:15.543Z,6.70
2023-01-28T06:34:37.232Z,6.53
2023-01-28T06:36:59.252Z,6.97
2023-01-28T06:39:22.235Z,6.93
2023-01-28T06:41:43.976Z,6.63
2023-01-28T06:44:05.814Z,6.60
2023-01-28T06:46:28.196Z,6.70
2023-01-28T06:48:49.856Z,7.10
2023-01-28T06:51:11.480Z,7.83
2023-01-28T06:53:33.107Z,7.07
2023-01-28T06:55:54.784Z,7.77
2023-01-28T06:58:16.770Z,6.83
2023-01-28T07:00:38.371Z,6.73
2023-01-28T07:03:00.060Z,15.27
2023-01-28T07:05:21.789Z,8.70
2023-01-28T07:07:43.511Z,10.07
2023-01-28T07:10:05.969Z,7.43
2023-01-28T07:12:27.614Z,7.50
2023-01-28T07:14:49.260Z,10.97
2023-01-28T07:17:10.974Z,9.37
2023-01-28T07:19:32.670Z,7.33
2023-01-28T07:21:57.777Z,9.80
2023-01-28T07:24:19.749Z,8.97
2023-01-28T07:26:41.536Z,10.47
2023-01-28T07:29:03.147Z,9.80
2023-01-28T07:31:25.547Z,11.87
2023-01-28T07:33:47.354Z,9.60
2023-01-28T07:36:09.052Z,8.57
2023-01-28T07:38:30.739Z,8.17
2023-01-28T07:40:52.431Z,8.47
2023-01-28T07:43:14.425Z,9.27
2023-01-28T07:45:36.340Z,9.40
2023-01-28T07:48:04.115Z,10.00
2023-01-28T07:50:27.059Z,7.97
2023-01-28T07:52:48.746Z,7.53
2023-01-28T07:55:15.565Z,8.20
2023-01-28T07:57:37.357Z,7.83
2023-01-28T07:59:59.029Z,8.17
2023-01-28T08:02:21.236Z,8.30
2023-01-28T08:04:43.170Z,9.20
2023-01-28T08:07:07.177Z,7.77
2023-01-28T08:09:29.786Z,9.07
2023-01-28T08:11:51.504Z,8.00
2023-01-28T08:14:13.183Z,8.17
2023-01-28T08:16:34.798Z,7.70
2023-01-28T08:18:57.094Z,8.03
2023-01-28T08:21:18.923Z,7.70
2023-01-28T08:23:41.105Z,8.10
2023-01-28T08:26:02.804Z,8.03
2023-01-28T08:28:25.118Z,7.20
2023-01-28T08:30:47.330Z,8.00
2023-01-28T08:33:12.332Z,9.40
2023-01-28T08:35:34.700Z,7.43
2023-01-28T08:38:00.663Z,8.13
2023-01-28T08:40:22.596Z,8.57
2023-01-28T08:42:49.588Z,8.43
2023-01-28T08:45:11.362Z,8.20
2023-01-28T08:47:33.000Z,9.00
2023-01-28T08:49:54.734Z,7.97
2023-01-28T08:52:16.420Z,7.70
2023-01-28T08:54:38.052Z,7.93
2023-01-28T08:56:59.791Z,7.80
2023-01-28T08:59:21.385Z,8.30
2023-01-28T09:01:43.303Z,8.03
2023-01-28T09:04:05.258Z,7.60
2023-01-28T09:06:26.901Z,7.50
2023-01-28T09:08:48.566Z,7.63
2023-01-28T09:11:10.253Z,8.43
2023-01-28T09:13:31.986Z,7.90
2023-01-28T09:15:53.723Z,7.93
2023-01-28T09:18:15.465Z,7.97
2023-01-28T09:20:38.653Z,8.77
2023-01-28T09:23:02.101Z,7.50
2023-01-28T09:25:23.763Z,7.90
2023-01-28T09:27:45.704Z,7.50
2023-01-28T09:30:10.334Z,7.83
2023-01-28T09:32:32.002Z,6.93
2023-01-28T09:34:53.679Z,7.80
2023-01-28T09:37:15.343Z,7.77
2023-01-28T09:39:38.254Z,7.57
2023-01-28T09:42:36.592Z,8.00
2023-01-28T09:45:23.762Z,8.33
2023-01-28T09:47:52.134Z,7.40
2023-01-28T09:50:39.494Z,8.40
2023-01-28T09:53:28.603Z,8.37
2023-01-28T09:56:26.287Z,8.93
2023-01-28T09:58:48.165Z,7.60
2023-01-28T10:01:09.956Z,8.03
2023-01-28T10:04:17.390Z,8.60
2023-01-28T10:07:06.972Z,8.03
2023-01-28T10:09:53.495Z,8.20
2023-01-28T10:12:43.801Z,7.50
2023-01-28T10:15:43.465Z,7.63
2023-01-28T10:18:17.682Z,7.70
2023-01-28T10:23:22.651Z,8.13
2023-01-28T10:25:48.340Z,8.03
2023-01-28T10:28:21.049Z,8.63
2023-01-28T10:30:46.620Z,7.50
2023-01-28T10:33:33.350Z,7.73
2023-01-28T10:35:56.642Z,7.30
2023-01-28T10:38:26.904Z,7.77
2023-01-28T10:40:49.281Z,7.57
2023-01-28T10:43:11.129Z,7.27
2023-01-28T10:45:46.248Z,7.80
2023-01-28T10:48:23.215Z,8.18
2023-01-28T10:50:59.492Z,7.50
2023-01-28T10:53:44.944Z,7.67
2023-01-28T10:56:15.929Z,7.40
2023-01-28T10:58:53.647Z,7.23
2023-01-28T11:01:15.550Z,7.47
2023-01-28T11:03:37.487Z,7.47
2023-01-28T11:05:59.692Z,7.23
2023-01-28T11:08:25.094Z,7.50
2023-01-28T11:10:48.192Z,7.00
2023-01-28T11:13:24.258Z,7.23
2023-01-28T11:15:52.801Z,7.27
2023-01-28T11:18:29.349Z,7.03
2023-01-28T11:21:06.193Z,7.10
2023-01-28T11:23:34.235Z,7.20
2023-01-28T11:26:14.221Z,6.93
2023-01-28T11:28:41.899Z,7.00
2023-01-28T11:31:04.491Z,7.67
2023-01-28T11:33:43.237Z,7.03
2023-01-28T11:36:19.890Z,7.20
2023-01-28T11:39:00.914Z,7.77
2023-01-28T11:41:27.218Z,7.20
2023-01-28T11:43:50.540Z,7.10
2023-01-28T11:46:54.655Z,7.13
2023-01-28T11:49:30.550Z,6.50
2023-01-28T11:53:02.661Z,6.53
2023-01-28T11:55:41.626Z,6.83
2023-01-28T11:58:24.134Z,6.93
2023-01-28T12:01:00.463Z,6.47
2023-01-28T12:04:07.141Z,6.73
2023-01-28T12:06:48.516Z,7.37
2023-01-28T12:09:43.866Z,7.40
2023-01-28T12:12:38.619Z,7.50
2023-01-28T12:15:29.212Z,7.18
2023-01-28T12:18:07.972Z,7.77
2023-01-28T12:20:42.207Z,8.10
2023-01-28T12:24:10.557Z,7.73
2023-01-28T12:26:49.210Z,7.80
2023-01-28T12:29:36.215Z,7.20
2023-01-28T12:32:53.741Z,7.50
2023-01-28T12:35:40.347Z,7.40
2023-01-28T12:38:57.077Z,7.30
2023-01-28T12:41:28.228Z,7.33
2023-01-28T12:44:02.173Z,7.97
2023-01-28T12:46:42.241Z,7.90
2023-01-28T12:49:25.016Z,7.97
2023-01-28T12:52:09.288Z,8.50
2023-01-28T12:55:01.069Z,7.83
2023-01-28T12:57:34.543Z,7.67
2023-01-28T13:00:46.159Z,7.95
2023-01-28T13:03:14.862Z,8.50
2023-01-28T13:05:48.260Z,8.00
2023-01-28T13:08:26.855Z,7.53
2023-01-28T13:10:49.045Z,8.47
2023-01-28T13:13:35.067Z,8.60
2023-01-28T13:15:57.920Z,8.33
2023-01-28T13:18:45.887Z,8.23
2023-01-28T13:21:24.287Z,8.43
2023-01-28T13:23:50.128Z,7.60
2023-01-28T13:26:23.698Z,8.17
2023-01-28T13:28:54.542Z,8.13
2023-01-28T13:31:20.766Z,8.17
2023-01-28T13:33:48.443Z,8.23
2023-01-28T13:36:31.607Z,7.83
2023-01-28T13:39:07.059Z,8.47
2023-01-28T13:41:53.397Z,7.73
2023-01-28T13:44:28.379Z,7.77
2023-01-28T13:46:50.041Z,7.87
2023-01-28T13:49:37.556Z,7.70
2023-01-28T13:52:15.941Z,7.83
2023-01-28T13:55:23.788Z,7.60
2023-01-28T13:57:58.062Z,7.87
2023-01-28T14:00:35.586Z,7.73
2023-01-28T14:03:34.224Z,7.70
2023-01-28T14:06:23.583Z,6.90
2023-01-28T14:09:32.961Z,7.40
2023-01-28T14:12:54.698Z,7.47
2023-01-28T14:16:00.615Z,7.90
2023-01-28T14:20:50.295Z,7.77
2023-01-28T14:23:21.975Z,7.40
2023-01-28T14:26:27.737Z,7.27
2023-01-28T14:29:30.095Z,7.43
2023-01-28T14:31:53.101Z,7.50
2023-01-28T14:34:36.262Z,7.60
2023-01-28T14:37:07.769Z,7.47
2023-01-28T14:39:37.876Z,7.77
2023-01-28T14:42:03.396Z,7.53
2023-01-28T14:44:36.316Z,7.57
2023-01-28T14:47:41.649Z,7.93
2023-01-28T14:50:35.387Z,7.53
2023-01-28T14:53:28.200Z,7.30
2023-01-28T14:56:11.492Z,7.60
2023-01-28T14:58:41.730Z,7.63
2023-01-28T15:01:03.518Z,7.93
2023-01-28T15:03:28.095Z,8.70
2023-01-28T15:05:49.939Z,7.97
2023-01-28T15:08:24.110Z,7.70
2023-01-28T15:10:45.977Z,7.82
2023-01-28T15:13:15.360Z,8.13
2023-01-28T15:15:41.259Z,8.47
2023-01-28T15:18:13.932Z,8.23
2023-01-28T15:20:35.677Z,8.33
2023-01-28T15:22:57.930Z,8.17
2023-01-28T15:25:28.836Z,8.10
2023-01-28T15:27:54.833Z,7.47
2023-01-28T15:30:33.005Z,7.73
2023-01-28T15:33:13.911Z,8.40
2023-01-28T15:35:36.599Z,8.10
2023-01-28T15:37:58.693Z,8.07
2023-01-28T15:40:23.429Z,8.40
2023-01-28T15:42:46.800Z,8.00
2023-01-28T15:45:20.588Z,7.97
2023-01-28T15:47:42.790Z,8.07
2023-01-28T15:50:08.356Z,8.37
2023-01-28T15:52:38.324Z,9.97
2023-01-28T15:55:00.218Z,9.50
2023-01-28T15:57:31.034Z,9.50
2023-01-28T16:00:06.361Z,8.77
2023-01-28T16:02:34.357Z,7.77
2023-01-28T16:05:08.356Z,7.30
2023-01-28T16:07:35.961Z,7.25
2023-01-28T16:10:01.924Z,7.90
2023-01-28T16:12:26.904Z,7.80
2023-01-28T16:15:00.396Z,7.87
2023-01-28T16:17:29.471Z,8.57
2023-01-28T16:20:04.920Z,7.80
2023-01-28T16:22:38.954Z,7.53
2023-01-28T16:25:01.042Z,8.35
2023-01-28T16:27:31.728Z,8.33
2023-01-28T16:29:54.251Z,8.23
2023-01-28T16:32:36.810Z,9.03
2023-01-28T16:35:00.129Z,9.23
2023-01-28T16:37:21.803Z,8.90
2023-01-28T16:39:43.415Z,8.87
2023-01-28T16:42:05.115Z,7.90
2023-01-28T16:44:26.812Z,8.00
2023-01-28T16:46:48.475Z,8.30
2023-01-28T16:49:10.719Z,8.30
2023-01-28T16:51:32.603Z,8.63
2023-01-28T16:53:54.973Z,7.73
2023-01-28T16:56:45.631Z,8.03
2023-01-28T16:59:14.942Z,8.97
2023-01-28T17:01:36.704Z,8.27
2023-01-28T17:03:58.647Z,8.07
2023-01-28T17:06:20.773Z,9.23
2023-01-28T17:08:42.640Z,9.07
2023-01-28T17:11:04.512Z,9.67
2023-01-28T17:13:26.531Z,10.03
2023-01-28T17:15:48.375Z,9.67
2023-01-28T17:18:11.479Z,11.30
2023-01-28T17:20:37.381Z,10.97
2023-01-28T17:22:59.233Z,11.03
2023-01-28T17:25:20.953Z,10.30
2023-01-28T17:27:42.691Z,10.17
2023-01-28T17:30:05.816Z,11.03
2023-01-28T17:32:27.505Z,10.67
2023-01-28T17:34:49.310Z,11.37
2023-01-28T17:37:11.228Z,10.60
2023-01-28T17:39:33.001Z,10.43
